Time;durP1;ratioP1;P1;durP2;ratioP2;P2;SDS_P1;SDS_P2;PMS_P1;PMS_P2;Temp;Humidity;BMP_temperature;BMP_pressure;BME280_temperature;BME280_humidity;BME280_pressure;Samples;Min_cycle;Max_cycle;Signal;HPM_P1;HPM_P2
2023/05/18 00:00:23;;;;;;;12.53;3.90;;;;;7.60;102136.00;;;;9811173;29;20282;-77
2023/05/18 00:05:24;;;;;;;11.23;4.07;;;;;7.50;102130.00;;;;9811020;29;20856;-77
2023/05/18 00:10:29;;;;;;;11.77;4.27;;;;;7.50;102129.00;;;;9826250;29;20227;-77
2023/05/18 00:15:30;;;;;;;10.73;4.07;;;;;7.40;102120.00;;;;9844653;29;20675;-82
2023/05/18 00:20:33;;;;;;;16.43;4.17;;;;;7.40;102117.00;;;;9870963;29;20244;-80
2023/05/18 00:25:35;;;;;;;11.63;3.70;;;;;7.30;102115.00;;;;9838258;29;21250;-79
2023/05/18 00:30:36;;;;;;;14.30;3.67;;;;;7.30;102126.00;;;;9821547;29;20219;-77
2023/05/18 00:35:37;;;;;;;12.67;3.57;;;;;7.20;102121.00;;;;9820604;29;20324;-77
2023/05/18 00:40:39;;;;;;;12.33;4.00;;;;;7.20;102119.00;;;;9802847;29;20355;-76
2023/05/18 00:45:40;;;;;;;11.43;4.00;;;;;7.10;102118.00;;;;9800308;29;20464;-75
2023/05/18 00:50:42;;;;;;;13.90;4.80;;;;;7.00;102118.00;;;;9809956;29;21931;-76
2023/05/18 00:55:43;;;;;;;10.63;4.20;;;;;7.00;102120.00;;;;9810514;29;20277;-76
2023/05/18 01:00:45;;;;;;;8.63;3.67;;;;;7.00;102126.00;;;;9809002;29;21466;-76
2023/05/18 01:05:54;;;;;;;9.03;3.57;;;;;6.90;102121.00;;;;9807903;29;20227;-76
2023/05/18 01:11:09;;;;;;;11.70;3.57;;;;;6.80;102118.00;;;;9811405;29;20226;-77
2023/05/18 01:16:17;;;;;;;10.17;3.43;;;;;6.80;102119.00;;;;9807108;29;20232;-79
2023/05/18 01:22:07;;;;;;;11.53;3.97;;;;;6.70;102130.00;;;;9820825;29;20232;-77
2023/05/18 01:27:13;;;;;;;10.77;3.63;;;;;6.60;102122.00;;;;9810812;29;20220;-77
2023/05/18 01:32:21;;;;;;;10.93;3.63;;;;;6.60;102120.00;;;;9813706;29;20492;-82
2023/05/18 01:37:22;;;;;;;8.67;3.53;;;;;6.50;102126.00;;;;9840599;29;20224;-82
2023/05/18 01:42:29;;;;;;;14.23;4.00;;;;;6.50;102131.00;;;;9806494;29;20274;-80
2023/05/18 01:47:32;;;;;;;14.47;4.07;;;;;6.40;102133.00;;;;9834248;29;20779;-80
2023/05/18 01:52:39;;;;;;;10.20;3.80;;;;;6.30;102127.00;;;;9818919;29;20231;-76
2023/05/18 01:57:43;;;;;;;10.80;4.07;;;;;6.30;102136.00;;;;9828826;29;21235;-77
2023/05/18 02:02:44;;;;;;;6.17;3.77;;;;;6.20;102121.00;;;;9844102;29;20239;-80
2023/05/18 02:07:48;;;;;;;12.80;4.07;;;;;6.10;102126.00;;;;9815936;29;20215;-77
2023/05/18 02:12:51;;;;;;;11.07;4.40;;;;;6.10;102127.00;;;;9838325;29;20326;-76
2023/05/18 02:17:56;;;;;;;8.37;3.93;;;;;6.00;102112.00;;;;9832683;29;20227;-77
2023/05/18 02:22:58;;;;;;;13.87;3.50;;;;;6.00;102120.00;;;;9822917;29;20240;-75
2023/05/18 02:28:00;;;;;;;10.63;4.00;;;;;6.00;102122.00;;;;9817290;29;21889;-76
2023/05/18 02:33:03;;;;;;;10.60;4.47;;;;;5.90;102117.00;;;;9839002;29;20276;-76
2023/05/18 02:38:04;;;;;;;14.87;4.20;;;;;5.90;102120.00;;;;9820577;29;21458;-75
2023/05/18 02:43:06;;;;;;;12.83;4.57;;;;;5.80;102108.00;;;;9817124;29;20892;-76
2023/05/18 02:48:08;;;;;;;8.93;3.70;;;;;5.70;102121.00;;;;9809128;29;20254;-76
2023/05/18 02:53:10;;;;;;;12.53;4.53;;;;;5.60;102113.00;;;;9807117;29;20258;-79
2023/05/18 02:58:14;;;;;;;16.63;3.87;;;;;5.60;102111.00;;;;9828196;29;20916;-80
2023/05/18 03:03:40;;;;;;;11.13;4.47;;;;;5.50;102125.00;;;;9851229;29;20219;-81
2023/05/18 03:08:42;;;;;;;11.67;4.57;;;;;5.40;102111.00;;;;9830839;29;20326;-80
2023/05/18 03:13:46;;;;;;;6.53;4.33;;;;;5.40;102117.00;;;;9824688;29;20250;-83
2023/05/18 03:18:47;;;;;;;10.50;4.27;;;;;5.40;102128.00;;;;9810430;29;20230;-77
2023/05/18 03:23:49;;;;;;;8.63;4.57;;;;;5.40;102121.00;;;;9834636;29;20324;-77
2023/05/18 03:28:51;;;;;;;7.23;4.00;;;;;5.30;102128.00;;;;9815154;29;20304;-75
2023/05/18 03:33:53;;;;;;;11.63;5.10;;;;;5.30;102122.00;;;;9817716;29;20231;-76
2023/05/18 03:38:54;;;;;;;9.67;4.20;;;;;5.30;102119.00;;;;9835025;29;20238;-76
2023/05/18 03:43:55;;;;;;;9.13;4.30;;;;;5.30;102129.00;;;;9814941;29;20235;-81
2023/05/18 03:48:57;;;;;;;10.80;4.53;;;;;5.30;102136.00;;;;9833408;29;20263;-76
2023/05/18 03:54:05;;;;;;;8.30;4.77;;;;;5.30;102131.00;;;;9819857;29;20223;-77
2023/05/18 03:59:07;;;;;;;10.30;4.87;;;;;5.20;102134.00;;;;9801288;29;21984;-76
2023/05/18 04:04:16;;;;;;;9.87;4.47;;;;;5.30;102140.00;;;;9826815;29;20623;-82
2023/05/18 04:09:20;;;;;;;10.30;5.43;;;;;5.30;102135.00;;;;9811967;29;20235;-80
2023/05/18 04:14:26;;;;;;;9.90;4.87;;;;;5.30;102142.00;;;;9817203;29;20226;-82
2023/05/18 04:19:28;;;;;;;12.13;5.23;;;;;5.40;102148.00;;;;9856119;29;20220;-81
2023/05/18 04:24:31;;;;;;;11.83;4.77;;;;;5.60;102149.00;;;;9805200;29;20223;-78
2023/05/18 04:29:33;;;;;;;9.33;5.10;;;;;5.80;102138.00;;;;9792636;29;20925;-77
2023/05/18 04:34:36;;;;;;;13.03;5.30;;;;;6.00;102137.00;;;;9809094;29;20338;-76
2023/05/18 04:39:38;;;;;;;9.03;5.10;;;;;6.30;102147.00;;;;9810838;29;20255;-77
2023/05/18 04:44:44;;;;;;;16.23;4.70;;;;;6.40;102159.00;;;;9783288;29;20234;-77
2023/05/18 04:49:47;;;;;;;8.03;5.17;;;;;6.50;102152.00;;;;9796430;29;20960;-77
2023/05/18 04:54:49;;;;;;;7.57;5.17;;;;;6.70;102163.00;;;;9798270;29;20237;-77
2023/05/18 04:59:52;;;;;;;9.97;4.73;;;;;6.80;102173.00;;;;9814896;29;20258;-76
2023/05/18 05:04:56;;;;;;;13.50;5.00;;;;;6.90;102157.00;;;;9780274;29;20975;-77
2023/05/18 05:09:57;;;;;;;12.93;4.90;;;;;7.00;102172.00;;;;9812095;29;20748;-77
2023/05/18 05:14:58;;;;;;;13.27;5.13;;;;;7.10;102170.00;;;;9818465;29;20235;-76
2023/05/18 05:20:00;;;;;;;9.73;5.20;;;;;7.30;102183.00;;;;9811739;29;20227;-76
2023/05/18 05:25:02;;;;;;;8.43;4.93;;;;;7.60;102180.00;;;;9796058;29;21923;-77
2023/05/18 05:30:08;;;;;;;15.83;5.57;;;;;7.90;102173.00;;;;9810998;29;20245;-76
2023/05/18 05:35:11;;;;;;;8.60;4.60;;;;;8.20;102185.00;;;;9800304;29;20349;-77
2023/05/18 05:40:12;;;;;;;9.60;4.90;;;;;8.40;102182.00;;;;9792913;29;20962;-76
2023/05/18 05:45:17;;;;;;;10.00;4.40;;;;;8.70;102173.00;;;;9783751;29;20358;-77
2023/05/18 05:50:22;;;;;;;16.80;5.93;;;;;8.90;102173.00;;;;9800999;29;21078;-76
2023/05/18 05:55:26;;;;;;;12.30;5.10;;;;;9.20;102173.00;;;;9803035;29;20220;-77
2023/05/18 06:00:28;;;;;;;13.93;5.20;;;;;9.50;102178.00;;;;9787809;29;20311;-77
2023/05/18 06:05:34;;;;;;;13.60;4.93;;;;;9.60;102177.00;;;;9788928;29;22134;-75
2023/05/18 06:10:40;;;;;;;11.27;4.50;;;;;9.80;102185.00;;;;9746115;29;20336;-77
2023/05/18 06:15:42;;;;;;;9.20;5.13;;;;;9.90;102192.00;;;;9766578;29;20754;-76
2023/05/18 06:20:43;;;;;;;15.40;4.80;;;;;10.00;102194.00;;;;9758221;29;21133;-76
2023/05/18 06:25:46;;;;;;;11.27;4.80;;;;;10.10;102201.00;;;;9734154;29;20223;-76
2023/05/18 06:31:19;;;;;;;12.43;5.87;;;;;10.30;102202.00;;;;9761616;29;20283;-75
2023/05/18 06:36:28;;;;;;;13.60;5.03;;;;;10.40;102208.00;;;;9799284;29;21578;-76
2023/05/18 06:41:32;;;;;;;16.37;5.80;;;;;10.60;102210.00;;;;9806999;29;21601;-74
2023/05/18 06:46:34;;;;;;;14.53;5.50;;;;;10.90;102214.00;;;;9746525;29;20953;-75
2023/05/18 06:51:42;;;;;;;11.17;5.33;;;;;11.30;102219.00;;;;9721573;29;20281;-75
2023/05/18 06:56:45;;;;;;;15.63;5.63;;;;;12.00;102214.00;;;;9732200;29;20240;-76
2023/05/18 07:01:46;;;;;;;14.87;5.53;;;;;12.40;102219.00;;;;9712668;29;20236;-76
2023/05/18 07:06:54;;;;;;;19.53;5.10;;;;;12.50;102215.00;;;;9707206;29;20849;-76
2023/05/18 07:11:55;;;;;;;16.97;5.43;;;;;12.60;102226.00;;;;9709496;29;20508;-76
2023/05/18 07:16:57;;;;;;;13.70;5.57;;;;;12.30;102226.00;;;;9759341;29;20235;-75
2023/05/18 07:21:58;;;;;;;12.70;5.63;;;;;12.50;102231.00;;;;9770448;29;21152;-75
2023/05/18 07:27:00;;;;;;;15.00;4.90;;;;;13.20;102223.00;;;;9786810;29;20223;-77
2023/05/18 07:32:02;;;;;;;10.23;5.37;;;;;13.40;102231.00;;;;9789927;29;20243;-77
2023/05/18 07:37:03;;;;;;;11.53;5.10;;;;;13.80;102231.00;;;;9810310;29;20230;-77
2023/05/18 07:42:05;;;;;;;17.00;7.03;;;;;14.10;102236.00;;;;9828016;29;20228;-76
2023/05/18 07:47:07;;;;;;;12.00;5.80;;;;;14.50;102228.00;;;;9824169;29;20219;-78
2023/05/18 07:52:08;;;;;;;13.77;5.43;;;;;14.60;102242.00;;;;9800987;29;20384;-78
2023/05/18 07:57:10;;;;;;;11.87;5.53;;;;;14.50;102242.00;;;;9812496;29;20219;-78
2023/05/18 08:02:11;;;;;;;15.80;5.80;;;;;15.00;102235.00;;;;9827448;29;20220;-80
2023/05/18 08:07:13;;;;;;;12.93;5.20;;;;;15.80;102243.00;;;;9804786;29;20277;-78
2023/05/18 08:12:18;;;;;;;18.43;5.03;;;;;16.50;102246.00;;;;9827390;29;20235;-77
2023/05/18 08:17:19;;;;;;;12.60;4.90;;;;;16.60;102244.00;;;;9787976;29;20231;-76
2023/05/18 08:22:21;;;;;;;9.83;4.77;;;;;16.10;102238.00;;;;9813485;29;20215;-77
2023/05/18 08:27:22;;;;;;;9.70;4.85;;;;;16.50;102236.00;;;;9812958;29;21989;-81
2023/05/18 08:32:24;;;;;;;11.73;5.25;;;;;17.20;102230.00;;;;9817133;29;20302;-76
2023/05/18 08:37:28;;;;;;;9.13;4.88;;;;;17.50;102230.00;;;;9817118;29;20219;-78
2023/05/18 08:42:38;;;;;;;12.43;5.15;;;;;18.30;102231.00;;;;9818285;29;20237;-82
2023/05/18 08:47:54;;;;;;;12.65;4.85;;;;;19.00;102223.00;;;;9803551;29;21980;-82
2023/05/18 08:53:00;;;;;;;12.05;5.13;;;;;19.70;102220.00;;;;9831965;29;20254;-81
2023/05/18 08:58:03;;;;;;;12.25;4.80;;;;;20.40;102217.00;;;;9790124;29;20219;-80
2023/05/18 09:03:05;;;;;;;10.70;5.18;;;;;20.70;102222.00;;;;9815292;29;20226;-79
2023/05/18 09:08:08;;;;;;;11.20;5.20;;;;;21.40;102215.00;;;;9818885;29;20224;-77
2023/05/18 09:13:11;;;;;;;9.88;5.32;;;;;21.90;102209.00;;;;9800550;29;20254;-77
2023/05/18 09:18:12;;;;;;;8.98;4.97;;;;;21.10;102216.00;;;;9810923;29;20227;-77
2023/05/18 09:23:15;;;;;;;10.32;4.45;;;;;20.40;102197.00;;;;9816771;29;20230;-81
2023/05/18 09:28:31;;;;;;;12.27;4.30;;;;;21.80;102202.00;;;;9801755;29;20322;-79
2023/05/18 09:33:35;;;;;;;9.73;3.88;;;;;21.30;102189.00;;;;9810544;29;20223;-78
2023/05/18 09:38:38;;;;;;;12.13;4.28;;;;;22.60;102191.00;;;;9813588;29;20243;-78
2023/05/18 09:43:40;;;;;;;10.35;3.80;;;;;21.50;102193.00;;;;9811945;29;20594;-77
2023/05/18 09:48:53;;;;;;;9.93;3.75;;;;;22.40;102182.00;;;;9828849;29;20411;-81
2023/05/18 09:53:56;;;;;;;9.35;3.83;;;;;22.30;102167.00;;;;9821733;29;20603;-78
2023/05/18 09:59:07;;;;;;;9.25;3.47;;;;;23.80;102166.00;;;;9824480;29;20281;-79
2023/05/18 10:04:09;;;;;;;6.22;3.85;;;;;24.50;102169.00;;;;9806680;29;20943;-77
2023/05/18 10:09:15;;;;;;;7.97;3.42;;;;;24.70;102167.00;;;;9796026;29;20265;-78
2023/05/18 10:14:16;;;;;;;6.65;3.10;;;;;24.70;102160.00;;;;9794254;29;20231;-77
2023/05/18 10:19:18;;;;;;;7.03;3.50;;;;;24.30;102179.00;;;;9819789;29;20859;-79
2023/05/18 10:24:20;;;;;;;10.25;3.75;;;;;23.50;102172.00;;;;9819704;29;20288;-77
2023/05/18 10:29:23;;;;;;;7.07;3.42;;;;;23.40;102174.00;;;;9832276;29;20223;-82
2023/05/18 10:34:24;;;;;;;12.30;3.50;;;;;22.90;102170.00;;;;9801362;29;20230;-79
2023/05/18 10:39:27;;;;;;;9.75;3.38;;;;;22.60;102152.00;;;;9819168;29;20255;-79
2023/05/18 10:44:30;;;;;;;11.18;3.33;;;;;23.00;102154.00;;;;9818354;29;20227;-80
2023/05/18 10:49:32;;;;;;;9.27;3.78;;;;;23.50;102145.00;;;;9817491;29;20459;-79
2023/05/18 10:54:35;;;;;;;9.50;3.60;;;;;24.00;102140.00;;;;9804947;29;20441;-79
2023/05/18 10:59:40;;;;;;;9.35;4.35;;;;;24.30;102136.00;;;;9802267;29;20330;-79
2023/05/18 11:04:46;;;;;;;9.77;3.88;;;;;23.90;102138.00;;;;9820032;29;20211;-79
2023/05/18 11:09:48;;;;;;;8.73;4.00;;;;;23.70;102135.00;;;;9823223;29;20219;-79
2023/05/18 11:14:54;;;;;;;9.30;3.95;;;;;23.10;102132.00;;;;9818694;29;20583;-79
2023/05/18 11:20:04;;;;;;;7.70;3.83;;;;;22.50;102126.00;;;;9818035;29;20239;-79
2023/05/18 11:25:08;;;;;;;14.23;4.20;;;;;22.20;102125.00;;;;9820758;29;21483;-81
2023/05/18 11:30:31;;;;;;;6.78;3.35;;;;;22.30;102117.00;;;;9802726;29;20208;-80
2023/05/18 11:35:34;;;;;;;9.48;3.67;;;;;22.50;102122.00;;;;9802732;29;21818;-76
2023/05/18 11:40:49;;;;;;;6.80;3.33;;;;;22.50;102115.00;;;;9815141;29;20360;-80
2023/05/18 11:45:57;;;;;;;9.15;4.45;;;;;23.00;102110.00;;;;9846073;29;21183;-78
2023/05/18 11:51:00;;;;;;;8.23;4.10;;;;;23.30;102107.00;;;;9818091;29;20223;-76
2023/05/18 11:56:01;;;;;;;6.45;4.30;;;;;23.10;102109.00;;;;9799028;29;20659;-76
2023/05/18 12:01:03;;;;;;;8.20;4.40;;;;;22.60;102104.00;;;;9816452;29;20239;-77
2023/05/18 12:06:05;;;;;;;6.68;3.92;;;;;22.40;102101.00;;;;9814146;29;20223;-76
2023/05/18 12:11:06;;;;;;;7.40;4.47;;;;;22.80;102100.00;;;;9797231;29;21021;-76
2023/05/18 12:16:10;;;;;;;9.68;4.75;;;;;23.80;102093.00;;;;9813621;29;21615;-77
2023/05/18 12:21:11;;;;;;;9.73;4.82;;;;;24.40;102088.00;;;;9828186;29;20341;-81
2023/05/18 12:26:13;;;;;;;13.02;5.43;;;;;25.40;102094.00;;;;9826207;29;20584;-76
2023/05/18 12:31:15;;;;;;;11.30;4.68;;;;;24.90;102090.00;;;;9808503;29;20224;-77
2023/05/18 12:36:16;;;;;;;9.63;4.60;;;;;24.80;102083.00;;;;9810994;29;20947;-76
2023/05/18 12:41:22;;;;;;;11.00;4.40;;;;;24.90;102084.00;;;;9812673;29;20288;-75
2023/05/18 12:46:23;;;;;;;7.72;4.00;;;;;25.20;102081.00;;;;9809795;29;20227;-76
2023/05/18 12:51:30;;;;;;;10.63;4.80;;;;;25.60;102071.00;;;;9812444;29;21661;-76
2023/05/18 12:56:59;;;;;;;10.32;4.47;;;;;25.00;102070.00;;;;9818024;29;20662;-80
2023/05/18 13:02:03;;;;;;;8.82;4.78;;;;;24.70;102059.00;;;;9846272;29;20231;-82
2023/05/18 13:07:04;;;;;;;14.18;4.90;;;;;24.20;102064.00;;;;9834654;29;20227;-79
2023/05/18 13:12:06;;;;;;;12.30;4.72;;;;;23.90;102050.00;;;;9803587;29;20975;-78
2023/05/18 13:17:09;;;;;;;9.30;3.95;;;;;23.80;102052.00;;;;9822479;29;20223;-79
2023/05/18 13:22:10;;;;;;;10.43;4.32;;;;;23.90;102050.00;;;;9815037;29;20783;-78
2023/05/18 13:27:11;;;;;;;10.98;4.20;;;;;24.40;102047.00;;;;9816029;29;21742;-81
2023/05/18 13:32:12;;;;;;;8.60;3.90;;;;;25.20;102046.00;;;;9803858;29;20219;-76
2023/05/18 13:37:14;;;;;;;7.65;3.65;;;;;25.30;102046.00;;;;9812848;29;20234;-76
2023/05/18 13:42:19;;;;;;;9.80;3.95;;;;;25.40;102037.00;;;;9818876;29;20250;-79
2023/05/18 13:47:21;;;;;;;7.70;4.28;;;;;25.20;102039.00;;;;9829217;29;20321;-81
2023/05/18 13:52:22;;;;;;;12.23;4.50;;;;;25.00;102033.00;;;;9821748;29;20485;-77
2023/05/18 13:57:25;;;;;;;8.80;3.50;;;;;24.70;102029.00;;;;9811640;29;20219;-77
2023/05/18 14:02:26;;;;;;;7.88;3.53;;;;;24.50;102013.00;;;;9815593;29;21415;-78
2023/05/18 14:07:27;;;;;;;8.73;4.03;;;;;24.40;102028.00;;;;9815423;29;20435;-76
2023/05/18 14:12:28;;;;;;;9.80;4.10;;;;;24.60;102016.00;;;;9813237;29;20227;-75
2023/05/18 14:17:31;;;;;;;11.73;4.65;;;;;24.30;102019.00;;;;9823700;29;21267;-81
2023/05/18 14:22:32;;;;;;;11.40;4.50;;;;;24.10;102005.00;;;;9810022;29;20239;-76
2023/05/18 14:27:34;;;;;;;8.93;4.20;;;;;24.20;102004.00;;;;9818460;29;20601;-77
2023/05/18 14:32:35;;;;;;;8.43;4.05;;;;;24.50;101996.00;;;;9819264;29;20270;-76
2023/05/18 14:37:36;;;;;;;6.63;3.75;;;;;25.20;101990.00;;;;9819328;29;20227;-77
2023/05/18 14:42:37;;;;;;;11.95;3.80;;;;;25.80;101991.00;;;;9817736;29;20239;-77
2023/05/18 14:47:39;;;;;;;6.28;3.92;;;;;26.00;101989.00;;;;9819446;29;20231;-77
2023/05/18 14:52:40;;;;;;;10.07;4.18;;;;;26.80;101980.00;;;;9816574;29;21953;-77
2023/05/18 14:57:43;;;;;;;9.48;3.75;;;;;28.00;101981.00;;;;9817875;29;21457;-75
2023/05/18 15:02:44;;;;;;;5.25;3.53;;;;;28.40;101981.00;;;;9812141;29;21374;-84
2023/05/18 15:07:46;;;;;;;11.85;4.00;;;;;25.90;101993.00;;;;9823484;29;20854;-78
2023/05/18 15:12:47;;;;;;;9.57;3.45;;;;;26.30;101978.00;;;;9830106;29;20223;-82
2023/05/18 15:17:49;;;;;;;9.85;3.42;;;;;26.80;101979.00;;;;9831992;29;20223;-82
2023/05/18 15:22:50;;;;;;;9.93;4.00;;;;;25.20;101979.00;;;;9837002;29;20276;-81
2023/05/18 15:27:52;;;;;;;11.35;3.92;;;;;26.00;101971.00;;;;9811425;29;20223;-80
2023/05/18 15:32:54;;;;;;;6.57;2.78;;;;;28.30;101971.00;;;;9849303;29;20200;-78
2023/05/18 15:37:55;;;;;;;6.30;3.38;;;;;28.80;101966.00;;;;9843018;29;20211;-80
2023/05/18 15:42:57;;;;;;;8.80;3.38;;;;;27.10;101974.00;;;;9826392;29;20328;-82
2023/05/18 15:47:58;;;;;;;8.57;4.20;;;;;24.10;101967.00;;;;9825579;29;20246;-77
2023/05/18 15:52:59;;;;;;;5.03;3.10;;;;;23.40;101961.00;;;;9819961;29;20250;-78
2023/05/18 15:58:02;;;;;;;8.55;3.35;;;;;22.10;101961.00;;;;9803440;29;20224;-78
2023/05/18 16:03:03;;;;;;;5.00;3.42;;;;;21.90;101957.00;;;;9796989;29;20246;-76
2023/05/18 16:08:05;;;;;;;8.13;3.58;;;;;21.60;101946.00;;;;9792521;29;20230;-77
2023/05/18 16:13:06;;;;;;;8.77;3.88;;;;;21.30;101959.00;;;;9815916;29;20659;-80
2023/05/18 16:18:07;;;;;;;9.10;4.10;;;;;20.80;101940.00;;;;9832638;29;20215;-79
2023/05/18 16:23:08;;;;;;;8.18;3.78;;;;;20.40;101951.00;;;;9812868;29;20305;-76
2023/05/18 16:28:10;;;;;;;11.30;3.78;;;;;20.10;101947.00;;;;9815342;29;20646;-76
2023/05/18 16:33:11;;;;;;;7.82;3.60;;;;;19.80;101946.00;;;;9812561;29;20227;-76
2023/05/18 16:38:13;;;;;;;11.15;3.97;;;;;19.60;101950.00;;;;9819231;29;20227;-75
2023/05/18 16:43:14;;;;;;;8.75;3.70;;;;;19.50;101949.00;;;;9817472;29;20243;-76
2023/05/18 16:48:16;;;;;;;7.93;3.78;;;;;19.50;101952.00;;;;9815432;29;20223;-76
2023/05/18 16:53:17;;;;;;;9.63;3.95;;;;;19.30;101944.00;;;;9814457;29;21719;-76
2023/05/18 16:58:19;;;;;;;7.80;3.42;;;;;19.30;101938.00;;;;9813826;29;20223;-75
2023/05/18 17:03:21;;;;;;;12.10;4.40;;;;;19.40;101942.00;;;;9841025;29;20365;-80
2023/05/18 17:08:22;;;;;;;9.05;4.15;;;;;19.20;101942.00;;;;9831877;29;20279;-78
2023/05/18 17:13:23;;;;;;;9.02;3.80;;;;;19.30;101939.00;;;;9842691;29;20219;-78
2023/05/18 17:18:24;;;;;;;6.85;4.53;;;;;19.10;101931.00;;;;9821481;29;20349;-79
2023/05/18 17:23:26;;;;;;;6.63;3.70;;;;;18.90;101938.00;;;;9783951;29;20639;-80
2023/05/18 17:28:27;;;;;;;10.85;4.00;;;;;18.90;101937.00;;;;9847038;29;20735;-78
2023/05/18 17:33:28;;;;;;;11.98;4.47;;;;;18.80;101938.00;;;;9869879;29;20222;-79
2023/05/18 17:38:30;;;;;;;11.23;4.00;;;;;18.70;101933.00;;;;9890674;24;20239;-78
2023/05/18 17:43:31;;;;;;;12.60;4.35;;;;;18.60;101946.00;;;;9796897;29;20243;-76
2023/05/18 17:48:32;;;;;;;11.07;3.60;;;;;18.40;101942.00;;;;9811433;29;21043;-79
2023/05/18 17:53:33;;;;;;;7.55;4.28;;;;;18.10;101944.00;;;;9792732;29;20568;-76
2023/05/18 17:58:37;;;;;;;10.40;4.28;;;;;17.80;101939.00;;;;9774560;30;20224;-76
2023/05/18 18:03:39;;;;;;;10.65;5.03;;;;;17.50;101946.00;;;;9809958;24;20239;-78
2023/05/18 18:08:41;;;;;;;8.40;3.92;;;;;17.20;101937.00;;;;9955485;24;20344;-78
2023/05/18 18:13:53;;;;;;;5.55;3.60;;;;;17.00;101938.00;;;;9881906;24;20746;-77
2023/05/18 18:18:55;;;;;;;8.38;3.95;;;;;16.70;101940.00;;;;9809638;29;20227;-78
2023/05/18 18:23:56;;;;;;;10.80;4.50;;;;;16.50;101943.00;;;;9794126;29;20350;-77
2023/05/18 18:28:57;;;;;;;12.85;4.15;;;;;16.30;101944.00;;;;9807935;29;20767;-76
2023/05/18 18:33:59;;;;;;;14.15;5.32;;;;;16.00;101943.00;;;;9925665;24;20243;-81
2023/05/18 18:39:00;;;;;;;9.35;3.72;;;;;15.90;101948.00;;;;9820162;29;20341;-76
2023/05/18 18:44:02;;;;;;;8.63;3.95;;;;;15.60;101943.00;;;;9824114;29;20227;-76
2023/05/18 18:49:03;;;;;;;8.63;3.87;;;;;15.40;101948.00;;;;9812554;29;20709;-76
2023/05/18 18:54:04;;;;;;;9.05;3.50;;;;;15.20;101956.00;;;;9808436;29;20231;-80
2023/05/18 18:59:06;;;;;;;14.23;4.33;;;;;14.90;101956.00;;;;9804782;29;20610;-80
2023/05/18 19:04:07;;;;;;;9.60;4.10;;;;;14.70;101962.00;;;;9805782;29;20630;-79
2023/05/18 19:09:09;;;;;;;9.97;4.03;;;;;14.50;101965.00;;;;9812544;29;20298;-79
2023/05/18 19:14:10;;;;;;;10.57;3.80;;;;;14.30;101971.00;;;;9847954;29;20219;-78
2023/05/18 19:19:12;;;;;;;8.63;3.33;;;;;14.10;101973.00;;;;9812409;29;20223;-77
2023/05/18 19:24:13;;;;;;;11.23;3.47;;;;;13.90;101977.00;;;;9811764;29;21732;-76
2023/05/18 19:29:14;;;;;;;9.13;3.93;;;;;13.70;101975.00;;;;9815933;29;20227;-79
2023/05/18 19:34:16;;;;;;;9.87;3.43;;;;;13.50;101985.00;;;;9846100;29;20524;-81
2023/05/18 19:39:18;;;;;;;12.87;3.70;;;;;13.40;101984.00;;;;9839856;29;22694;-81
2023/05/18 19:44:19;;;;;;;12.43;3.73;;;;;13.20;101997.00;;;;9838121;29;20307;-81
2023/05/18 19:49:21;;;;;;;7.20;3.73;;;;;13.00;102002.00;;;;9853354;29;20366;-79
2023/05/18 19:54:22;;;;;;;10.13;4.00;;;;;12.90;102001.00;;;;9850698;29;20207;-80
2023/05/18 19:59:23;;;;;;;8.40;3.77;;;;;12.80;101999.00;;;;9865884;29;20754;-82
2023/05/18 20:04:26;;;;;;;10.30;4.00;;;;;12.60;102006.00;;;;9833010;29;20247;-81
2023/05/18 20:09:28;;;;;;;8.07;4.10;;;;;12.50;102002.00;;;;9855191;29;20339;-80
2023/05/18 20:14:32;;;;;;;12.20;4.27;;;;;12.40;102006.00;;;;9840599;29;20227;-82
2023/05/18 20:19:36;;;;;;;7.67;3.93;;;;;12.20;102005.00;;;;9855680;29;20236;-81
2023/05/18 20:24:42;;;;;;;13.97;3.63;;;;;12.10;102015.00;;;;9861628;29;20262;-82
2023/05/18 20:29:43;;;;;;;8.93;3.67;;;;;12.00;102017.00;;;;9841901;29;20269;-80
2023/05/18 20:34:44;;;;;;;11.03;4.13;;;;;11.90;102020.00;;;;9839866;29;20234;-80
2023/05/18 20:39:49;;;;;;;9.83;4.43;;;;;11.80;102021.00;;;;9839679;29;20239;-78
2023/05/18 20:44:51;;;;;;;12.20;3.80;;;;;11.70;102020.00;;;;9831397;29;20231;-81
2023/05/18 20:49:52;;;;;;;10.77;3.93;;;;;11.60;102023.00;;;;9837626;29;20238;-80
2023/05/18 20:54:54;;;;;;;7.43;3.70;;;;;11.50;102026.00;;;;9867389;29;20323;-80
2023/05/18 20:59:55;;;;;;;11.90;4.53;;;;;11.40;102028.00;;;;9853319;29;20243;-78
2023/05/18 21:04:56;;;;;;;8.30;4.17;;;;;11.20;102025.00;;;;9880699;29;20211;-80
2023/05/18 21:09:58;;;;;;;7.13;4.53;;;;;11.10;102036.00;;;;9861950;29;20228;-79
2023/05/18 21:14:59;;;;;;;11.27;4.43;;;;;11.00;102034.00;;;;9857693;29;20227;-82
2023/05/18 21:20:00;;;;;;;6.97;4.40;;;;;11.00;102043.00;;;;9857024;29;20618;-82
2023/05/18 21:25:04;;;;;;;11.90;4.73;;;;;10.90;102037.00;;;;9825706;29;20239;-81
2023/05/18 21:30:06;;;;;;;6.03;4.03;;;;;10.80;102036.00;;;;9854819;29;20235;-80
2023/05/18 21:35:08;;;;;;;11.37;4.67;;;;;10.70;102038.00;;;;9851756;29;20223;-81
2023/05/18 21:40:09;;;;;;;6.57;4.13;;;;;10.70;102042.00;;;;9853869;29;20243;-80
2023/05/18 21:45:11;;;;;;;9.47;4.57;;;;;10.60;102044.00;;;;9866439;29;20231;-81
2023/05/18 21:50:12;;;;;;;8.87;4.43;;;;;10.50;102039.00;;;;9858732;29;20266;-79
2023/05/18 21:55:14;;;;;;;14.23;5.87;;;;;10.40;102049.00;;;;9864372;29;20263;-81
2023/05/18 22:00:16;;;;;;;10.60;5.27;;;;;10.40;102043.00;;;;9872711;29;21002;-82
2023/05/18 22:05:18;;;;;;;13.07;5.30;;;;;10.30;102049.00;;;;9855485;29;21109;-81
2023/05/18 22:10:20;;;;;;;7.77;5.23;;;;;10.20;102049.00;;;;9871900;29;20297;-80
2023/05/18 22:15:21;;;;;;;9.50;5.00;;;;;10.10;102045.00;;;;9896634;29;20230;-78
2023/05/18 22:20:22;;;;;;;12.47;5.73;;;;;10.00;102053.00;;;;9892690;29;20335;-79
2023/05/18 22:25:25;;;;;;;7.07;4.80;;;;;9.90;102053.00;;;;9881396;29;20227;-80
2023/05/18 22:30:27;;;;;;;8.53;5.70;;;;;9.90;102043.00;;;;9850401;29;20227;-82
2023/05/18 22:35:29;;;;;;;10.57;5.93;;;;;9.70;102037.00;;;;9845309;29;20228;-83
2023/05/18 22:40:30;;;;;;;9.17;5.33;;;;;9.60;102038.00;;;;9822905;29;20236;-77
2023/05/18 22:45:32;;;;;;;12.97;6.07;;;;;9.50;102042.00;;;;9795713;29;20223;-76
2023/05/18 22:50:34;;;;;;;10.50;5.77;;;;;9.40;102031.00;;;;9800706;29;20969;-75
2023/05/18 22:55:35;;;;;;;15.60;6.27;;;;;9.30;102028.00;;;;9804118;29;20666;-74
2023/05/18 23:00:37;;;;;;;12.63;6.40;;;;;9.20;102032.00;;;;9787322;29;20358;-78
2023/05/18 23:05:42;;;;;;;12.73;6.33;;;;;9.10;102022.00;;;;9827535;29;20761;-81
2023/05/18 23:10:43;;;;;;;11.13;6.47;;;;;9.10;102018.00;;;;9830983;29;20247;-80
2023/05/18 23:15:46;;;;;;;15.63;7.67;;;;;9.00;102023.00;;;;9815549;29;20329;-82
2023/05/18 23:20:49;;;;;;;10.80;6.50;;;;;9.00;102015.00;;;;9832275;29;20324;-80
2023/05/18 23:25:51;;;;;;;12.93;6.63;;;;;8.90;102018.00;;;;9806615;29;21040;-82
2023/05/18 23:30:52;;;;;;;12.97;6.30;;;;;8.90;102011.00;;;;9817375;29;20226;-79
2023/05/18 23:35:58;;;;;;;10.97;6.63;;;;;8.80;102019.00;;;;9818883;29;20239;-78
2023/05/18 23:41:02;;;;;;;9.57;6.90;;;;;8.70;102011.00;;;;9825412;29;20809;-78
2023/05/18 23:46:03;;;;;;;14.40;7.37;;;;;8.50;102018.00;;;;9810775;29;20235;-78
2023/05/18 23:51:07;;;;;;;9.97;7.80;;;;;8.30;102004.00;;;;9778673;29;20219;-79
2023/05/18 23:56:08;;;;;;;15.40;7.83;;;;;8.10;102013.00;;;;9795285;29;20228;-84
